M I D A S
Marine Information and Data Acquisition System
Tripno 1831 of the Zeeleeuw from 2009-12-11 07:23:24 to 2009-12-11 15:23:04
Back to CruiseResearch ActivitiesStationsMapUnderway DataData graphs

EquipmentUnitsComment
TimeDGPSUTC
LatitudeDGPSDM.mWGS84
LongitudeDGPSDM.mWGS84
HeadingGyrodeg 
SOGDGPSknotsSpeed over ground
COGDGPSdegCourse over ground
DepthEcho soundermeters200 kHz
Missing or incorrect values are displayed as -999
Navigation data collected by the RV Zeeleeuw from 2009-12-11 07:21:24 to 2009-12-11 16:03:35
                                                                                    Next 1000 lines
Time Latitude Longitude Heading SOG COG Depth
2009-12-11 07:21:34 51°13.662 2°55.955 108.5 1.2 286 10
2009-12-11 07:21:39 51°13.663 2°55.952 108.5 1.7 290 10
2009-12-11 07:21:44 51°13.664 2°55.947 108.7 2.3 291 10.1
2009-12-11 07:21:49 51°13.665 2°55.941 109 2.6 291 -999
2009-12-11 07:21:55 51°13.667 2°55.933 109.1 3 289 -999
2009-12-11 07:22:01 51°13.668 2°55.925 109 3.3 290 -999
2009-12-11 07:22:06 51°13.67 2°55.917 109 3.6 290 -999
2009-12-11 07:22:12 51°13.673 2°55.907 109.1 4 293 -999
2009-12-11 07:22:17 51°13.675 2°55.899 110.1 4.2 293 -999
2009-12-11 07:22:22 51°13.678 2°55.89 111 4.4 294 -999
2009-12-11 07:22:27 51°13.68 2°55.881 111.1 4.5 294 -999
2009-12-11 07:22:32 51°13.683 2°55.871 111.7 4.7 294 -999
2009-12-11 07:22:37 51°13.686 2°55.862 112.5 4.7 294 -999
2009-12-11 07:22:42 51°13.689 2°55.852 113.3 4.8 295 -999
2009-12-11 07:22:47 51°13.691 2°55.843 114.2 4.8 295 -999
2009-12-11 07:22:52 51°13.694 2°55.834 115.4 4.7 297 -999
2009-12-11 07:22:57 51°13.697 2°55.824 116.5 4.6 297 -999
2009-12-11 07:23:02 51°13.7 2°55.816 117.7 4.5 299 -999
2009-12-11 07:23:07 51°13.703 2°55.807 119.3 4.5 300 -999
2009-12-11 07:23:12 51°13.706 2°55.799 121.3 4.5 302 -999
2009-12-11 07:23:17 51°13.71 2°55.79 123.5 4.6 302 -999
2009-12-11 07:23:22 51°13.713 2°55.782 125.5 4.6 305 -999
2009-12-11 07:23:27 51°13.717 2°55.774 127.1 4.6 306 -999
2009-12-11 07:23:32 51°13.721 2°55.766 128.6 4.6 308 -999
2009-12-11 07:23:37 51°13.725 2°55.758 129.9 4.6 309 -999
2009-12-11 07:23:42 51°13.729 2°55.75 130.8 4.5 309 -999
2009-12-11 07:23:47 51°13.733 2°55.743 131.7 4.5 310 -999
2009-12-11 07:23:52 51°13.737 2°55.735 132.9 4.5 310 -999
2009-12-11 07:23:57 51°13.741 2°55.728 134.2 4.6 312 -999
2009-12-11 07:24:03 51°13.746 2°55.718 135.4 4.7 313 -999
2009-12-11 07:24:08 51°13.751 2°55.711 136.6 4.6 315 -999
2009-12-11 07:24:12 51°13.755 2°55.706 138.1 4.6 316 -999
2009-12-11 07:24:17 51°13.759 2°55.699 139.5 4.6 317 -999
2009-12-11 07:24:22 51°13.764 2°55.692 141.3 4.5 318 -999
2009-12-11 07:24:27 51°13.769 2°55.686 143.2 4.6 322 -999
2009-12-11 07:24:32 51°13.775 2°55.68 145.5 4.7 323 -999
2009-12-11 07:24:37 51°13.78 2°55.674 148.2 4.7 326 -999
2009-12-11 07:24:42 51°13.785 2°55.668 151.3 4.8 329 -999
2009-12-11 07:24:47 51°13.791 2°55.663 154.4 4.9 333 -999
2009-12-11 07:24:52 51°13.798 2°55.659 157.2 4.8 336 -999
2009-12-11 07:24:57 51°13.804 2°55.655 159.7 4.6 338 -999
2009-12-11 07:25:02 51°13.81 2°55.652 161.7 4.6 341 -999
2009-12-11 07:25:08 51°13.817 2°55.648 163.3 4.6 342 -999
2009-12-11 07:25:13 51°13.823 2°55.645 164.6 4.7 343 -999
2009-12-11 07:25:18 51°13.83 2°55.642 165.5 4.7 344 -999
2009-12-11 07:25:22 51°13.835 2°55.64 165.9 4.7 345 -999
2009-12-11 07:25:28 51°13.842 2°55.637 166.6 4.7 345 -999
2009-12-11 07:25:33 51°13.849 2°55.634 167.7 4.8 346 -999
2009-12-11 07:25:38 51°13.855 2°55.632 168.7 4.7 347 -999
2009-12-11 07:25:43 51°13.862 2°55.63 169.9 4.7 348 -999
2009-12-11 07:25:48 51°13.868 2°55.628 171.4 4.6 350 -999
2009-12-11 07:25:53 51°13.874 2°55.627 173.2 4.6 351 -999
2009-12-11 07:25:58 51°13.88 2°55.626 175.7 4.4 355 -999
2009-12-11 07:26:02 51°13.884 2°55.625 178.9 4.1 355 -999
2009-12-11 07:26:08 51°13.891 2°55.625 182.2 3.8 359 -999
2009-12-11 07:26:13 51°13.896 2°55.625 185.2 3.6 -999 -999
2009-12-11 07:26:18 51°13.9 2°55.626 188.1 3.4 4 -999
2009-12-11 07:26:22 51°13.904 2°55.627 191 3.2 5 -999
2009-12-11 07:26:28 51°13.909 2°55.628 193.9 3 10 13.9
2009-12-11 07:26:32 51°13.912 2°55.629 196.1 2.8 10 13.8
2009-12-11 07:26:37 51°13.915 2°55.63 198.4 2.6 14 13.7
2009-12-11 07:26:42 51°13.918 2°55.632 200.5 2.5 15 13.6
2009-12-11 07:26:47 51°13.921 2°55.633 203.1 2.3 17 13.7
2009-12-11 07:26:52 51°13.924 2°55.635 205.5 2.2 19 13.7
2009-12-11 07:26:57 51°13.927 2°55.637 207.5 2.1 20 14.3
2009-12-11 07:27:01 51°13.929 2°55.638 209.4 1.8 23 14.3
2009-12-11 07:27:06 51°13.93 2°55.639 211.3 1.4 23 13.8
2009-12-11 07:27:11 51°13.932 2°55.64 213.6 0.9 12 13.7
2009-12-11 07:27:16 51°13.932 2°55.64 216.8 0.4 347 13.8
2009-12-11 07:27:21 51°13.932 2°55.639 220.6 0.3 296 13.8
2009-12-11 07:27:26 51°13.932 2°55.638 225.6 0.6 262 13.7
2009-12-11 07:27:30 51°13.932 2°55.636 230.9 0.9 255 13.7
2009-12-11 07:27:35 51°13.931 2°55.634 236.7 1.3 257 13.8
2009-12-11 07:27:40 51°13.931 2°55.63 243 2 256 14.2
2009-12-11 07:27:45 51°13.93 2°55.624 249.6 2.5 264 13.6
2009-12-11 07:27:50 51°13.93 2°55.618 257.7 2.9 272 13.5
2009-12-11 07:27:54 51°13.93 2°55.612 268.7 3.3 277 13.4
2009-12-11 07:27:59 51°13.931 2°55.604 276 3.7 287 13.8
2009-12-11 07:28:04 51°13.932 2°55.595 284.9 4.1 291 13.7
2009-12-11 07:28:09 51°13.935 2°55.586 291.8 4.5 298 13.8
2009-12-11 07:28:14 51°13.939 2°55.578 297.9 4.7 303 13.7
2009-12-11 07:28:18 51°13.942 2°55.571 304.2 5 308 13.9
2009-12-11 07:28:24 51°13.949 2°55.561 310 5.4 315 13.6
2009-12-11 07:28:29 51°13.955 2°55.552 315.4 5.8 319 -999
2009-12-11 07:28:33 51°13.96 2°55.546 321.8 6.2 324 13.8
2009-12-11 07:28:38 51°13.968 2°55.538 325.4 6.6 327 14.2
2009-12-11 07:28:43 51°13.976 2°55.531 328.4 6.9 329 14.3
2009-12-11 07:28:49 51°13.987 2°55.521 328.9 7.2 329 13.8
2009-12-11 07:28:53 51°13.994 2°55.514 329.5 7.6 331 13.8
2009-12-11 07:28:58 51°14.004 2°55.506 330 7.8 331 13.8
2009-12-11 07:29:03 51°14.013 2°55.497 330.9 8 332 13.9
2009-12-11 07:29:09 51°14.025 2°55.486 331.2 8.2 332 13.9
2009-12-11 07:29:13 51°14.034 2°55.48 331.9 8.4 332 12.8
2009-12-11 07:29:18 51°14.044 2°55.471 333.1 8.5 334 13.3
2009-12-11 07:29:23 51°14.055 2°55.463 334.4 8.7 335 13
2009-12-11 07:29:28 51°14.066 2°55.455 334.2 8.7 334 12.9
2009-12-11 07:29:33 51°14.077 2°55.446 334.1 8.8 335 12.9
2009-12-11 07:29:38 51°14.088 2°55.438 334.9 9 334 12.9
2009-12-11 07:29:43 51°14.1 2°55.429 334.3 9.1 334 13.2
2009-12-11 07:29:48 51°14.111 2°55.42 334.2 9 333 13.2
2009-12-11 07:29:53 51°14.122 2°55.41 333.4 9.1 332 13.2
2009-12-11 07:29:58 51°14.133 2°55.4 332.1 9.4 331 13.3
2009-12-11 07:30:03 51°14.144 2°55.39 331.1 9.4 332 13.4
2009-12-11 07:30:08 51°14.155 2°55.38 331.9 9.6 330 13.4
2009-12-11 07:30:13 51°14.167 2°55.369 330.4 9.6 328 13.9
2009-12-11 07:30:19 51°14.18 2°55.354 327.8 9.6 325 13.7
2009-12-11 07:30:23 51°14.189 2°55.344 326.4 9.8 326 13.6
2009-12-11 07:30:28 51°14.201 2°55.332 325.7 10 323 13.5
2009-12-11 07:30:33 51°14.212 2°55.317 323.3 10.1 321 13.3
2009-12-11 07:30:38 51°14.223 2°55.302 320.5 10.3 318 13.7
2009-12-11 07:30:43 51°14.233 2°55.286 317.6 10.3 315 13.3
2009-12-11 07:30:49 51°14.244 2°55.266 314.2 10.3 312 13.2
2009-12-11 07:30:53 51°14.251 2°55.252 312 10.4 311 13.6
2009-12-11 07:30:58 51°14.261 2°55.235 311.2 10.3 311 13.5
2009-12-11 07:31:03 51°14.27 2°55.216 310.2 10.5 309 13.2
2009-12-11 07:31:09 51°14.281 2°55.195 310.2 10.5 310 12.7
2009-12-11 07:31:13 51°14.288 2°55.181 311.5 10.4 310 12.9
2009-12-11 07:31:18 51°14.297 2°55.162 310.9 10.6 306 12.8
2009-12-11 07:31:23 51°14.305 2°55.143 307.3 10.7 303 13.2
2009-12-11 07:31:29 51°14.315 2°55.119 303.2 10.7 302 13
2009-12-11 07:31:33 51°14.322 2°55.103 302.2 10.6 304 12.8
2009-12-11 07:31:38 51°14.33 2°55.084 304.3 10.7 306 12.7
2009-12-11 07:31:43 51°14.338 2°55.064 304.8 10.7 303 12.4
2009-12-11 07:31:49 51°14.348 2°55.04 303.7 10.6 303 12.2
2009-12-11 07:31:53 51°14.355 2°55.024 302 10.8 302 11.5
2009-12-11 07:31:58 51°14.363 2°55.004 302 10.5 307 11.2
2009-12-11 07:32:03 51°14.373 2°54.987 304 10.6 309 11.5
2009-12-11 07:32:08 51°14.382 2°54.968 305.3 10.4 309 11.5
2009-12-11 07:32:13 51°14.391 2°54.95 304.1 10.2 305 11.6
2009-12-11 07:32:18 51°14.398 2°54.931 299.6 10.2 301 11.8
2009-12-11 07:32:23 51°14.404 2°54.911 293.5 10 294 12.3
2009-12-11 07:32:28 51°14.408 2°54.889 287.2 9.8 286 12.5
2009-12-11 07:32:33 51°14.411 2°54.87 281.9 9.7 284 12.7
2009-12-11 07:32:39 51°14.412 2°54.845 276.6 9.5 275 13.2
2009-12-11 07:32:43 51°14.413 2°54.827 272 9.7 274 12.4
2009-12-11 07:32:48 51°14.411 2°54.806 266.9 9.5 267 12
2009-12-11 07:32:53 51°14.409 2°54.786 263 9.4 262 12.8
2009-12-11 07:32:58 51°14.407 2°54.765 259.2 9.5 256 12.8
2009-12-11 07:33:03 51°14.403 2°54.744 253.8 9.5 255 11.8
2009-12-11 07:33:09 51°14.397 2°54.722 249.6 9.5 249 12.3
2009-12-11 07:33:13 51°14.393 2°54.706 246.1 9.6 247 12.6
2009-12-11 07:33:18 51°14.387 2°54.687 244.7 9.8 248 12.2
2009-12-11 07:33:23 51°14.382 2°54.667 244 9.6 245 12.8
2009-12-11 07:33:29 51°14.375 2°54.643 244.7 9.7 247 12.3
2009-12-11 07:33:33 51°14.37 2°54.628 244 9.8 245 12.8
2009-12-11 07:33:38 51°14.366 2°54.608 244.2 9.6 244 12.4
2009-12-11 07:33:43 51°14.36 2°54.588 242.3 9.8 247 12.1
2009-12-11 07:33:48 51°14.355 2°54.568 244.8 9.8 250 11.9
2009-12-11 07:33:53 51°14.35 2°54.548 247.2 9.7 251 12
2009-12-11 07:33:58 51°14.346 2°54.527 248.3 9.8 252 11.9
2009-12-11 07:34:03 51°14.342 2°54.507 250.2 9.7 254 12.1
2009-12-11 07:34:08 51°14.338 2°54.486 250.4 9.8 251 11.7
2009-12-11 07:34:13 51°14.335 2°54.465 250.3 9.9 260 11.8
2009-12-11 07:34:18 51°14.331 2°54.445 252.4 9.6 250 12.1
2009-12-11 07:34:23 51°14.327 2°54.424 250.9 9.7 254 12.1
2009-12-11 07:34:28 51°14.325 2°54.403 252.4 9.7 256 11.8
2009-12-11 07:34:33 51°14.321 2°54.382 252.2 9.8 256 11.6
2009-12-11 07:34:38 51°14.318 2°54.361 252.8 9.8 255 12.1
2009-12-11 07:34:44 51°14.314 2°54.336 253.2 9.8 256 11.6
2009-12-11 07:34:48 51°14.311 2°54.319 253.1 9.9 258 12.2
2009-12-11 07:34:53 51°14.308 2°54.298 254.3 9.9 254 12.2
2009-12-11 07:34:58 51°14.305 2°54.276 254.1 9.9 260 12.1
2009-12-11 07:35:04 51°14.301 2°54.251 255.3 9.9 252 12.3
2009-12-11 07:35:09 51°14.299 2°54.229 253.4 9.9 264 11.4
2009-12-11 07:35:13 51°14.297 2°54.213 256.5 9.7 256 12.3
2009-12-11 07:35:18 51°14.293 2°54.192 254.1 9.7 254 12.9
2009-12-11 07:35:23 51°14.291 2°54.17 255.2 9.6 257 12.2
2009-12-11 07:35:29 51°14.287 2°54.145 254.7 9.8 258 12.3
2009-12-11 07:35:33 51°14.285 2°54.129 255 9.7 256 12.2
2009-12-11 07:35:38 51°14.282 2°54.108 255.5 9.6 260 11.5
2009-12-11 07:35:44 51°14.277 2°54.083 254.1 9.9 251 12.4
2009-12-11 07:35:48 51°14.276 2°54.066 253.4 9.8 262 11.6
2009-12-11 07:35:53 51°14.273 2°54.045 255.6 9.6 256 11.6
2009-12-11 07:35:58 51°14.269 2°54.024 252.4 9.6 253 11.6
2009-12-11 07:36:03 51°14.267 2°54.003 253.4 9.7 261 11.4
2009-12-11 07:36:09 51°14.262 2°53.979 253.7 9.7 253 11.9
2009-12-11 07:36:13 51°14.26 2°53.962 253.2 9.8 256 11.8
2009-12-11 07:36:18 51°14.256 2°53.941 254 9.8 259 11.9
2009-12-11 07:36:23 51°14.253 2°53.92 253.6 9.8 253 12.2
2009-12-11 07:36:28 51°14.25 2°53.899 252.5 10 260 12.1
2009-12-11 07:36:33 51°14.247 2°53.878 254.1 9.9 253 12.6
2009-12-11 07:36:38 51°14.244 2°53.856 254.6 9.8 260 11.8
2009-12-11 07:36:43 51°14.241 2°53.835 254.4 9.8 255 12
2009-12-11 07:36:48 51°14.238 2°53.814 253.7 9.9 260 12
2009-12-11 07:36:53 51°14.235 2°53.793 254.7 10 254 12.4
2009-12-11 07:36:58 51°14.233 2°53.771 254.8 10 260 11.9
2009-12-11 07:37:03 51°14.229 2°53.75 253.2 9.9 256 11.9
2009-12-11 07:37:08 51°14.227 2°53.728 255.8 10 263 12
2009-12-11 07:37:13 51°14.224 2°53.707 256.3 9.8 255 12.5
2009-12-11 07:37:18 51°14.222 2°53.685 254.6 9.9 260 12.2
2009-12-11 07:37:24 51°14.217 2°53.66 254.8 10 256 12.3
2009-12-11 07:37:29 51°14.215 2°53.638 255.6 9.8 260 11.7
2009-12-11 07:37:33 51°14.211 2°53.622 253.6 9.9 250 12.8
2009-12-11 07:37:38 51°14.208 2°53.601 251.4 9.8 255 12.2
2009-12-11 07:37:43 51°14.202 2°53.582 247.5 9.9 244 13
2009-12-11 07:37:49 51°14.197 2°53.556 247.6 9.8 252 12.3
2009-12-11 07:37:53 51°14.191 2°53.542 244.5 9.9 245 12.1
2009-12-11 07:37:58 51°14.186 2°53.522 244.6 9.6 241 13.2
2009-12-11 07:38:04 51°14.179 2°53.499 242.4 9.7 246 12.1
2009-12-11 07:38:09 51°14.172 2°53.48 240.2 9.8 242 12.5
2009-12-11 07:38:13 51°14.168 2°53.464 241.9 9.7 242 12
2009-12-11 07:38:18 51°14.159 2°53.447 236.8 9.8 239 13.1
2009-12-11 07:38:23 51°14.155 2°53.427 241.5 9.6 239 12.1
2009-12-11 07:38:29 51°14.145 2°53.405 236.7 9.9 241 12.3
2009-12-11 07:38:33 51°14.141 2°53.39 239 9.6 239 12.4
2009-12-11 07:38:38 51°14.132 2°53.373 235.8 9.9 239 12.4
2009-12-11 07:38:44 51°14.125 2°53.35 238.6 9.6 241 12.6
2009-12-11 07:38:48 51°14.119 2°53.335 238.1 9.6 238 12.1
2009-12-11 07:38:53 51°14.111 2°53.317 235.3 9.9 239 12.6
2009-12-11 07:38:58 51°14.105 2°53.298 238.3 9.6 239 13.2
2009-12-11 07:39:03 51°14.098 2°53.281 236.9 9.9 234 13
2009-12-11 07:39:08 51°14.09 2°53.262 235.2 9.6 243 12.8
2009-12-11 07:39:13 51°14.084 2°53.244 239.8 9.5 235 12.8
2009-12-11 07:39:18 51°14.076 2°53.227 234.5 9.8 233 13.4
2009-12-11 07:39:23 51°14.07 2°53.209 237 9.4 237 12.4
2009-12-11 07:39:28 51°14.06 2°53.193 233.5 9.8 234 13.1
2009-12-11 07:39:33 51°14.055 2°53.173 238.2 9.4 242 12.4
2009-12-11 07:39:38 51°14.046 2°53.158 234.8 9.8 230 13.1
2009-12-11 07:39:44 51°14.039 2°53.135 234.3 9.7 243 12.6
2009-12-11 07:39:48 51°14.032 2°53.122 235.8 9.6 231 13
2009-12-11 07:39:53 51°14.024 2°53.103 234.2 9.8 241 13.3
2009-12-11 07:39:58 51°14.018 2°53.085 238.1 9.4 240 13.4
2009-12-11 07:40:03 51°14.011 2°53.068 236.1 9.7 235 12.9
2009-12-11 07:40:09 51°14.002 2°53.046 234.8 9.7 242 13
2009-12-11 07:40:13 51°13.996 2°53.032 236.7 9.5 230 13.6
2009-12-11 07:40:18 51°13.989 2°53.014 235.2 9.7 241 12.7
2009-12-11 07:40:23 51°13.982 2°52.996 236.3 9.8 235 13.7
2009-12-11 07:40:28 51°13.975 2°52.977 237.5 9.5 240 13
2009-12-11 07:40:33 51°13.967 2°52.96 236.2 9.8 235 12.9
2009-12-11 07:40:38 51°13.961 2°52.941 237.4 9.7 244 12.8
2009-12-11 07:40:43 51°13.954 2°52.923 237.6 9.8 234 12.7
2009-12-11 07:40:48 51°13.947 2°52.904 235.5 9.9 244 12.8
2009-12-11 07:40:53 51°13.941 2°52.886 240.5 9.7 239 12.8
2009-12-11 07:40:58 51°13.932 2°52.868 236 9.8 236 13.4
2009-12-11 07:41:03 51°13.927 2°52.849 238.1 9.5 242 12.6
2009-12-11 07:41:08 51°13.918 2°52.833 235.5 9.6 234 13.6
2009-12-11 07:41:13 51°13.913 2°52.813 238.8 9.5 237 13.4
2009-12-11 07:41:18 51°13.904 2°52.797 235.1 9.6 239 12.7
2009-12-11 07:41:23 51°13.898 2°52.778 237.1 9.6 236 13.3
2009-12-11 07:41:28 51°13.89 2°52.76 236.7 9.8 239 12.9
2009-12-11 07:41:33 51°13.883 2°52.742 236.1 9.9 233 13.4
2009-12-11 07:41:39 51°13.875 2°52.719 236.9 9.7 244 13
2009-12-11 07:41:43 51°13.869 2°52.706 238 9.6 232 13
2009-12-11 07:41:48 51°13.862 2°52.687 235.2 9.8 242 13.2
2009-12-11 07:41:53 51°13.856 2°52.669 240 9.3 241 12.8
2009-12-11 07:41:58 51°13.847 2°52.652 236.4 10 230 13.7
2009-12-11 07:42:03 51°13.842 2°52.632 238.2 9.5 248 12.6
2009-12-11 07:42:09 51°13.831 2°52.614 237.3 10 226 13.5
2009-12-11 07:42:13 51°13.827 2°52.597 234.5 9.5 246 12.9
2009-12-11 07:42:18 51°13.819 2°52.581 237.9 9.7 228 13.2
2009-12-11 07:42:23 51°13.812 2°52.563 233 9.7 246 12.8
2009-12-11 07:42:28 51°13.805 2°52.545 237.9 9.5 234 12.9
2009-12-11 07:42:33 51°13.798 2°52.527 235.3 9.8 237 13.4
2009-12-11 07:42:38 51°13.791 2°52.509 236.7 9.7 242 12.5
2009-12-11 07:42:43 51°13.783 2°52.491 238.2 9.8 237 13.1
2009-12-11 07:42:49 51°13.776 2°52.468 238.6 9.6 244 13
2009-12-11 07:42:53 51°13.77 2°52.454 237.4 9.9 235 13.4
2009-12-11 07:42:58 51°13.764 2°52.434 238.6 9.7 244 13.2
2009-12-11 07:43:03 51°13.756 2°52.417 239 9.9 235 13.3
2009-12-11 07:43:08 51°13.75 2°52.397 238.2 9.9 247 13.3
2009-12-11 07:43:13 51°13.743 2°52.379 239.6 9.8 236 13.5
2009-12-11 07:43:18 51°13.736 2°52.36 237.5 10 241 13
2009-12-11 07:43:23 51°13.729 2°52.341 237.4 9.9 240 13.4
2009-12-11 07:43:28 51°13.723 2°52.322 239.6 9.7 240 12.8
2009-12-11 07:43:33 51°13.715 2°52.305 235.8 10 238 13.6
2009-12-11 07:43:39 51°13.709 2°52.281 240.5 9.5 246 12.8
2009-12-11 07:43:43 51°13.702 2°52.267 239.1 9.9 234 13.5
2009-12-11 07:43:48 51°13.696 2°52.248 237.7 9.6 247 13.3
2009-12-11 07:43:53 51°13.69 2°52.23 242.2 9.5 233 13.4
2009-12-11 07:43:58 51°13.682 2°52.212 236.7 9.8 241 13.1
2009-12-11 07:44:03 51°13.676 2°52.193 238.3 9.5 237 13.4
2009-12-11 07:44:08 51°13.668 2°52.175 236.7 9.9 243 13
2009-12-11 07:44:13 51°13.662 2°52.156 240 9.8 239 13.7
2009-12-11 07:44:18 51°13.655 2°52.137 238.4 9.8 240 13.3
2009-12-11 07:44:24 51°13.646 2°52.116 237.8 9.8 236 13.7
2009-12-11 07:44:28 51°13.641 2°52.1 237.8 9.7 244 13
2009-12-11 07:44:33 51°13.634 2°52.082 238.7 9.8 236 13.2
2009-12-11 07:44:38 51°13.627 2°52.062 237.8 9.9 242 13
2009-12-11 07:44:43 51°13.62 2°52.045 238 9.7 239 13.3
2009-12-11 07:44:49 51°13.612 2°52.022 240 9.8 239 13.7
2009-12-11 07:44:53 51°13.607 2°52.007 239 9.7 242 12.9
2009-12-11 07:44:58 51°13.599 2°51.989 237.4 9.8 235 14.3
2009-12-11 07:45:03 51°13.594 2°51.969 241 9.6 248 13.2
2009-12-11 07:45:09 51°13.584 2°51.948 239.5 9.9 234 13.4
2009-12-11 07:45:13 51°13.58 2°51.932 238.2 9.6 244 13.5
2009-12-11 07:45:18 51°13.573 2°51.914 240.1 9.6 240 12.8
2009-12-11 07:45:23 51°13.565 2°51.897 236.7 9.9 234 13.9
2009-12-11 07:45:28 51°13.56 2°51.876 239.6 9.6 245 12.6
2009-12-11 07:45:33 51°13.551 2°51.861 236.5 10 232 13.8
2009-12-11 07:45:38 51°13.545 2°51.841 237 9.4 245 13.1
2009-12-11 07:45:43 51°13.537 2°51.825 237.5 9.9 231 13.7
2009-12-11 07:45:49 51°13.529 2°51.801 235.2 9.7 244 13.5
2009-12-11 07:45:53 51°13.524 2°51.788 239 9.5 234 12.9
2009-12-11 07:45:58 51°13.515 2°51.77 234.7 9.9 241 13.5
2009-12-11 07:46:03 51°13.51 2°51.751 240.3 9.3 240 13.6
2009-12-11 07:46:08 51°13.502 2°51.734 236.9 9.7 234 14
2009-12-11 07:46:13 51°13.496 2°51.714 237 9.6 244 13.5
2009-12-11 07:46:18 51°13.488 2°51.697 238.2 9.7 234 13.4
2009-12-11 07:46:24 51°13.482 2°51.673 237.8 9.8 245 13.2
2009-12-11 07:46:28 51°13.475 2°51.659 239.2 9.8 238 13.7
2009-12-11 07:46:33 51°13.469 2°51.64 239.3 9.8 240 13.4
2009-12-11 07:46:38 51°13.461 2°51.622 237.3 9.7 238 13.3
2009-12-11 07:46:43 51°13.456 2°51.603 240.9 9.8 238 13.7
2009-12-11 07:46:49 51°13.447 2°51.58 238.9 10 241 13.2
2009-12-11 07:46:53 51°13.442 2°51.565 239.6 9.8 242 13
2009-12-11 07:46:58 51°13.434 2°51.547 238.8 9.9 236 13.6
2009-12-11 07:47:03 51°13.429 2°51.527 240.3 9.6 249 13.2
2009-12-11 07:47:09 51°13.419 2°51.507 240.4 10.2 230 14
2009-12-11 07:47:13 51°13.415 2°51.491 237.1 9.6 249 13.5
2009-12-11 07:47:18 51°13.409 2°51.473 242.7 9.6 231 13.1
2009-12-11 07:47:23 51°13.401 2°51.454 236.2 9.9 246 13.7
2009-12-11 07:47:28 51°13.395 2°51.436 240 9.5 233 13.7
2009-12-11 07:47:34 51°13.386 2°51.413 236 10 242 13.7
2009-12-11 07:47:38 51°13.381 2°51.399 239.8 9.6 241 13.7
2009-12-11 07:47:43 51°13.374 2°51.381 238.8 9.7 235 13.5
2009-12-11 07:47:48 51°13.366 2°51.362 236.4 9.9 243 13.9
2009-12-11 07:47:54 51°13.36 2°51.341 242 8.8 239 13.6
2009-12-11 07:47:58 51°13.354 2°51.33 237.6 8.2 235 14
2009-12-11 07:48:03 51°13.349 2°51.315 236 7.3 235 13.3
2009-12-11 07:48:08 51°13.342 2°51.304 233.8 6.7 234 13.3
2009-12-11 07:48:13 51°13.338 2°51.293 234.2 6 229 13.5
2009-12-11 07:48:19 51°13.331 2°51.283 231.6 5.5 231 13.2
2009-12-11 07:48:23 51°13.327 2°51.277 228.1 5 214 14.2
2009-12-11 07:48:28 51°13.322 2°51.27 222.5 4.5 220 13.2
2009-12-11 07:48:33 51°13.316 2°51.267 216.8 4.3 200 13.8
2009-12-11 07:48:38 51°13.312 2°51.263 211.7 3.9 208 13.4
2009-12-11 07:48:43 51°13.307 2°51.263 206.3 3.6 189 13.6
2009-12-11 07:48:49 51°13.301 2°51.261 201.6 3.5 187 13.6
2009-12-11 07:48:53 51°13.298 2°51.262 195.3 3.2 178 13.3
2009-12-11 07:48:58 51°13.293 2°51.263 190 3.3 173 13.8
2009-12-11 07:49:03 51°13.289 2°51.264 184.8 3.1 163 13
2009-12-11 07:49:09 51°13.284 2°51.267 179.5 3.1 159 13.8
2009-12-11 07:49:13 51°13.281 2°51.27 173.6 3 151 13.3
2009-12-11 07:49:18 51°13.277 2°51.274 169.2 3.3 144 13.4
2009-12-11 07:49:23 51°13.274 2°51.278 162.7 3.2 142 13.4
2009-12-11 07:49:28 51°13.271 2°51.284 156.9 3.3 133 13.4
2009-12-11 07:49:33 51°13.268 2°51.289 150.4 3 129 13
2009-12-11 07:49:38 51°13.265 2°51.294 146.7 2.9 125 13.5
2009-12-11 07:49:43 51°13.263 2°51.299 142.6 2.7 129 13
2009-12-11 07:49:48 51°13.261 2°51.305 141.7 2.9 113 12.8
2009-12-11 07:49:53 51°13.26 2°51.309 139.4 2.4 122 13
2009-12-11 07:49:58 51°13.259 2°51.314 137.7 2.2 108 13.1
2009-12-11 07:50:03 51°13.258 2°51.318 135.3 1.7 115 13.4
2009-12-11 07:50:08 51°13.258 2°51.321 133.1 1.4 103 13.2
2009-12-11 07:50:13 51°13.257 2°51.324 131.5 1.4 92 13
2009-12-11 07:50:19 51°13.257 2°51.327 128.2 1.1 110 13.6
2009-12-11 07:50:24 51°13.257 2°51.33 126.2 1.4 86 13.1
2009-12-11 07:50:28 51°13.257 2°51.331 124.8 1.2 94 13.4
2009-12-11 07:50:33 51°13.257 2°51.335 121.7 1.1 115 13.7
2009-12-11 07:50:38 51°13.257 2°51.338 121.5 1.2 84 12.7
2009-12-11 07:50:43 51°13.257 2°51.339 119.9 0.9 92 13.2
2009-12-11 07:50:49 51°13.258 2°51.342 117.1 0.7 94 13.3
2009-12-11 07:50:53 51°13.257 2°51.343 116.8 0.7 58 13.6
2009-12-11 07:50:58 51°13.257 2°51.344 114.6 0.5 149 14.4
2009-12-11 07:51:04 51°13.258 2°51.346 114.7 0.7 73 13
2009-12-11 07:51:09 51°13.258 2°51.348 116.9 0.8 68 12.9
2009-12-11 07:51:13 51°13.258 2°51.348 115.8 0.5 119 13.5
2009-12-11 07:51:18 51°13.258 2°51.35 116.9 0.9 64 12.6
2009-12-11 07:51:23 51°13.258 2°51.351 118.2 0.6 77 12.7
2009-12-11 07:51:29 51°13.259 2°51.352 117.9 0.6 73 13.2
2009-12-11 07:51:33 51°13.259 2°51.354 118.7 0.6 76 13
2009-12-11 07:51:38 51°13.259 2°51.355 120.2 0.7 65 12.8
2009-12-11 07:51:43 51°13.259 2°51.356 119.8 0.3 94 13.5
2009-12-11 07:51:49 51°13.259 2°51.358 120 0.6 98 12.7
2009-12-11 07:51:54 51°13.26 2°51.36 122.3 1.1 66 12.1
2009-12-11 07:51:58 51°13.259 2°51.36 120.1 0.6 120 13.1
2009-12-11 07:52:03 51°13.26 2°51.362 120.6 0.8 72 12.7
2009-12-11 07:52:08 51°13.26 2°51.363 122 0.6 89 13.2
2009-12-11 07:52:14 51°13.259 2°51.364 121.3 0.5 90 13.9
2009-12-11 07:52:18 51°13.259 2°51.365 121.6 0.5 130 13.8
2009-12-11 07:52:23 51°13.259 2°51.367 122.6 0.9 68 12.9
2009-12-11 07:52:29 51°13.258 2°51.368 123 0.5 101 13.5
2009-12-11 07:52:33 51°13.259 2°51.37 121.8 0.7 96 13.4
2009-12-11 07:52:38 51°13.259 2°51.372 123.1 1 75 12.5
2009-12-11 07:52:43 51°13.259 2°51.373 122.6 0.7 90 13
2009-12-11 07:52:49 51°13.259 2°51.375 121.2 0.5 90 13.3
2009-12-11 07:52:53 51°13.259 2°51.376 122.7 0.7 81 13.3
2009-12-11 07:52:58 51°13.259 2°51.377 122.5 0.7 92 12.9
2009-12-11 07:53:03 51°13.259 2°51.379 122.4 0.9 81 12.8
2009-12-11 07:53:09 51°13.259 2°51.381 122.2 0.6 100 13.5
2009-12-11 07:53:13 51°13.26 2°51.383 122.3 0.7 87 13
2009-12-11 07:53:18 51°13.259 2°51.384 123.5 0.8 84 12.8
2009-12-11 07:53:24 51°13.259 2°51.386 122.7 0.5 109 13.4
2009-12-11 07:53:29 51°13.26 2°51.387 123 0.9 68 12.9
2009-12-11 07:53:33 51°13.259 2°51.388 122.9 0.6 114 13.3
2009-12-11 07:53:38 51°13.259 2°51.39 122.3 0.9 74 12.6
2009-12-11 07:53:43 51°13.259 2°51.391 122.9 0.6 91 13
2009-12-11 07:53:49 51°13.259 2°51.393 121.7 0.6 112 13.1
2009-12-11 07:53:53 51°13.259 2°51.394 122.9 1.2 62 12.5
2009-12-11 07:53:58 51°13.259 2°51.396 122.1 0.6 136 13.4
2009-12-11 07:54:03 51°13.26 2°51.398 121.9 1 63 12.7
2009-12-11 07:54:09 51°13.259 2°51.399 123.1 0.6 92 13.4
2009-12-11 07:54:13 51°13.26 2°51.401 121.1 0.7 95 13.2
2009-12-11 07:54:18 51°13.259 2°51.402 122.4 1.1 70 12.2
2009-12-11 07:54:23 51°13.259 2°51.404 121.3 0.6 116 13.6
2009-12-11 07:54:28 51°13.26 2°51.406 119.7 0.7 92 13
2009-12-11 07:54:33 51°13.259 2°51.408 121.5 1.1 74 12.4
2009-12-11 07:54:38 51°13.26 2°51.409 120.4 0.8 95 13.2
2009-12-11 07:54:43 51°13.26 2°51.411 119.3 0.7 87 13.6
2009-12-11 07:54:48 51°13.261 2°51.413 118.5 0.8 79 13.2
2009-12-11 07:54:53 51°13.26 2°51.414 118.4 0.8 76 13.3
2009-12-11 07:54:58 51°13.261 2°51.416 116.7 0.6 110 13.5
2009-12-11 07:55:03 51°13.261 2°51.418 116.3 0.8 78 13.2
2009-12-11 07:55:08 51°13.261 2°51.42 115.6 0.7 102 13.5
2009-12-11 07:55:13 51°13.261 2°51.422 114 0.9 72 12.9
2009-12-11 07:55:18 51°13.261 2°51.423 113.9 0.7 98 13.1
2009-12-11 07:55:23 51°13.261 2°51.425 112.6 0.7 92 13.4
2009-12-11 07:55:29 51°13.261 2°51.427 112.7 0.9 69 12.8
2009-12-11 07:55:33 51°13.26 2°51.428 111.9 0.7 123 13.5
2009-12-11 07:55:38 51°13.261 2°51.431 110.6 1 69 13.2
2009-12-11 07:55:43 51°13.26 2°51.432 110.4 0.8 82 12.7
2009-12-11 07:55:49 51°13.26 2°51.434 109.1 0.7 99 13.2
2009-12-11 07:55:53 51°13.261 2°51.436 108.4 0.7 102 13.1
2009-12-11 07:55:58 51°13.261 2°51.438 108.7 0.9 85 13
2009-12-11 07:56:03 51°13.261 2°51.44 107.8 0.8 98 13
2009-12-11 07:56:09 51°13.261 2°51.442 107.3 0.9 81 13.2
2009-12-11 07:56:13 51°13.261 2°51.444 106 0.8 114 13.5
2009-12-11 07:56:18 51°13.261 2°51.446 105.8 0.9 77 13.1
2009-12-11 07:56:23 51°13.261 2°51.447 106.2 0.8 82 12.8
2009-12-11 07:56:28 51°13.261 2°51.449 104.9 0.9 80 12.7
2009-12-11 07:56:33 51°13.261 2°51.451 104.9 0.8 96 13.1
2009-12-11 07:56:38 51°13.261 2°51.453 104.1 0.9 90 13.3
2009-12-11 07:56:43 51°13.262 2°51.455 105 1 71 12.6
2009-12-11 07:56:48 51°13.261 2°51.457 104.2 0.9 89 12.6
2009-12-11 07:56:53 51°13.262 2°51.459 103.6 1 79 12.7
2009-12-11 07:56:58 51°13.261 2°51.461 103.6 0.9 102 13.1
2009-12-11 07:57:03 51°13.262 2°51.463 102.8 0.9 105 13.3
2009-12-11 07:57:08 51°13.262 2°51.465 102.6 1 69 12.8
2009-12-11 07:57:13 51°13.262 2°51.467 101.6 0.9 110 12.9
2009-12-11 07:57:18 51°13.262 2°51.469 101.5 1.1 69 12.6
2009-12-11 07:57:23 51°13.261 2°51.471 101 1.1 97 13.1
2009-12-11 07:57:28 51°13.262 2°51.474 100.5 1.3 100 13.5
2009-12-11 07:57:33 51°13.262 2°51.477 103 1.6 91 12.9
2009-12-11 07:57:38 51°13.261 2°51.481 104.1 1.8 98 12.9
2009-12-11 07:57:43 51°13.261 2°51.486 107.3 2.4 98 12.8
2009-12-11 07:57:49 51°13.26 2°51.493 111.1 2.8 106 12.9
2009-12-11 07:57:53 51°13.259 2°51.498 116.8 3.3 104 12.5
2009-12-11 07:57:58 51°13.257 2°51.505 121.1 3.4 118 12.8
2009-12-11 07:58:04 51°13.254 2°51.514 127.6 3.9 124 12.4
2009-12-11 07:58:08 51°13.251 2°51.519 136 4.1 122 12.6
2009-12-11 07:58:14 51°13.246 2°51.526 143.2 3.8 141 12.9
2009-12-11 07:58:18 51°13.243 2°51.531 149.6 4 134 12.6
2009-12-11 07:58:23 51°13.238 2°51.535 159.1 3.8 160 13
2009-12-11 07:58:28 51°13.233 2°51.539 165.8 3.7 151 12.4
2009-12-11 07:58:34 51°13.227 2°51.54 176.9 3.6 170 12.9
2009-12-11 07:58:38 51°13.223 2°51.541 183.6 3.2 177 12.3
2009-12-11 07:58:43 51°13.218 2°51.541 190.6 3.4 182 13
2009-12-11 07:58:48 51°13.215 2°51.539 197.4 3 194 12.4
2009-12-11 07:58:54 51°13.209 2°51.537 205.5 3 200 13
2009-12-11 07:58:58 51°13.207 2°51.534 212 3.1 204 12.5
2009-12-11 07:59:04 51°13.202 2°51.53 217.4 3.2 214 12.2
2009-12-11 07:59:08 51°13.2 2°51.527 221.1 3.3 215 12.2
2009-12-11 07:59:13 51°13.195 2°51.522 222.6 3.5 217 12.9
2009-12-11 07:59:18 51°13.192 2°51.516 224.1 3.9 212 12.5
2009-12-11 07:59:24 51°13.186 2°51.51 222.5 4.1 228 12.2
2009-12-11 07:59:29 51°13.181 2°51.505 224.3 4.6 212 12.4
2009-12-11 07:59:33 51°13.177 2°51.499 223.3 4.5 227 12.3
2009-12-11 07:59:38 51°13.172 2°51.493 224.4 4.8 212 12.6
2009-12-11 07:59:44 51°13.167 2°51.484 222.9 4.7 227 12.4
2009-12-11 07:59:48 51°13.163 2°51.479 225.4 4.6 220 12.5
2009-12-11 07:59:53 51°13.158 2°51.471 227.3 4.6 230 12.5
2009-12-11 07:59:58 51°13.154 2°51.464 229 4.4 230 12
2009-12-11 08:00:04 51°13.149 2°51.455 231 4.4 230 12.9
2009-12-11 08:00:09 51°13.146 2°51.447 234.2 4.2 234 12.1
2009-12-11 08:00:13 51°13.143 2°51.442 234.3 4.1 243 12.5
2009-12-11 08:00:18 51°13.141 2°51.434 237.7 4 222 12.7
2009-12-11 08:00:23 51°13.137 2°51.428 236.6 3.9 249 12.7
2009-12-11 08:00:28 51°13.135 2°51.421 239.6 3.6 222 12.9
2009-12-11 08:00:34 51°13.133 2°51.412 238.3 3.5 254 12.4
2009-12-11 08:00:38 51°13.131 2°51.408 240.6 3.3 233 12.3
2009-12-11 08:00:43 51°13.128 2°51.402 241.1 3.3 249 12.7
2009-12-11 08:00:49 51°13.125 2°51.394 242.9 3.3 230 12.9
2009-12-11 08:00:54 51°13.125 2°51.388 242.8 3.2 254 12.2
2009-12-11 08:00:58 51°13.122 2°51.383 244.6 3.2 235 12.5
2009-12-11 08:01:03 51°13.121 2°51.377 245.4 3.2 263 11.8
2009-12-11 08:01:08 51°13.118 2°51.372 247 3.2 227 13.1
2009-12-11 08:01:14 51°13.117 2°51.364 246.8 2.8 250 12.5
2009-12-11 08:01:18 51°13.115 2°51.36 247 2.9 247 12.6
2009-12-11 08:01:24 51°13.114 2°51.352 248.3 3 242 12.8
2009-12-11 08:01:28 51°13.113 2°51.348 249.3 3 265 12.5
2009-12-11 08:01:33 51°13.112 2°51.342 251.3 2.8 239 12.6
2009-12-11 08:01:38 51°13.111 2°51.336 250.4 2.8 263 12.1
2009-12-11 08:01:44 51°13.109 2°51.33 251.2 2.8 255 13.2
2009-12-11 08:01:49 51°13.108 2°51.324 252 2.7 245 13
2009-12-11 08:01:53 51°13.107 2°51.319 250.6 2.8 263 12.3
2009-12-11 08:01:58 51°13.106 2°51.313 251.1 2.8 241 12.9
2009-12-11 08:02:04 51°13.105 2°51.305 250.8 2.8 256 12.7
2009-12-11 08:02:08 51°13.104 2°51.3 251.5 2.9 258 12.3
2009-12-11 08:02:13 51°13.103 2°51.294 252.3 2.9 251 12.5
2009-12-11 08:02:18 51°13.102 2°51.288 251.8 3 255 12.5
2009-12-11 08:02:24 51°13.101 2°51.281 251.6 3 258 12.6
2009-12-11 08:02:29 51°13.099 2°51.274 252.3 3 252 13
2009-12-11 08:02:33 51°13.098 2°51.269 252.7 3 253 12.5
2009-12-11 08:02:38 51°13.097 2°51.262 251.4 3.1 256 12.4
2009-12-11 08:02:44 51°13.096 2°51.254 252.1 3.2 256 12.6
2009-12-11 08:02:49 51°13.095 2°51.247 253 3.2 257 12.7
2009-12-11 08:02:54 51°13.094 2°51.24 253.3 3.2 253 12.8
2009-12-11 08:02:58 51°13.093 2°51.234 253.5 3.3 261 12.3
2009-12-11 08:03:03 51°13.092 2°51.228 254 3.2 257 12.1
2009-12-11 08:03:08 51°13.091 2°51.221 254.1 3.2 261 12.6
2009-12-11 08:03:14 51°13.09 2°51.212 254.1 3.2 256 12.4
2009-12-11 08:03:18 51°13.09 2°51.206 254.1 3.3 262 12.4
2009-12-11 08:03:23 51°13.089 2°51.199 255.5 3.2 253 12.9
2009-12-11 08:03:28 51°13.088 2°51.192 256.1 3.3 258 12.2
2009-12-11 08:03:34 51°13.087 2°51.184 255.1 3.4 267 12.3
2009-12-11 08:03:38 51°13.085 2°51.179 256.5 3.2 251 13.1
2009-12-11 08:03:44 51°13.085 2°51.17 255.9 3.3 261 12.9
2009-12-11 08:03:48 51°13.084 2°51.164 255.6 3.2 257 12.8
2009-12-11 08:03:53 51°13.084 2°51.157 256.3 3.2 261 12
2009-12-11 08:03:58 51°13.082 2°51.15 255.6 3.2 263 12.4
2009-12-11 08:04:03 51°13.082 2°51.143 256.3 3.2 258 12.9
2009-12-11 08:04:09 51°13.081 2°51.135 256.8 3.2 264 12.6
2009-12-11 08:04:13 51°13.08 2°51.129 257 3.2 260 12.8
2009-12-11 08:04:18 51°13.08 2°51.122 257.3 3.3 259 13.1
2009-12-11 08:04:24 51°13.079 2°51.113 257 3.3 262 12.9
2009-12-11 08:04:29 51°13.078 2°51.106 257.2 3.3 260 12.8
2009-12-11 08:04:33 51°13.078 2°51.1 257.4 3.4 264 12.8
2009-12-11 08:04:38 51°13.077 2°51.093 258.5 3.3 266 12.6
2009-12-11 08:04:44 51°13.077 2°51.084 259 3.3 262 13
2009-12-11 08:04:48 51°13.076 2°51.078 258.2 3.3 258 13.4
2009-12-11 08:04:53 51°13.076 2°51.07 258.8 3.3 263 13
2009-12-11 08:04:58 51°13.075 2°51.063 258.2 3.3 264 13.1
2009-12-11 08:05:03 51°13.074 2°51.056 256.8 3.2 257 13
2009-12-11 08:05:09 51°13.074 2°51.048 254.8 3.3 266 12.4
2009-12-11 08:05:13 51°13.072 2°51.043 252.7 3.2 248 13.2
2009-12-11 08:05:18 51°13.071 2°51.036 250.5 3.2 251 13.5
2009-12-11 08:05:23 51°13.068 2°51.029 247.7 3.1 247 12.9
2009-12-11 08:05:28 51°13.066 2°51.023 244.2 3.1 241 12.9
2009-12-11 08:05:33 51°13.064 2°51.017 240.4 3.1 240 12.6
2009-12-11 08:05:38 51°13.062 2°51.011 236.7 3.1 237 13
2009-12-11 08:05:43 51°13.06 2°51.005 237.2 3.2 236 13.1
2009-12-11 08:05:48 51°13.057 2°50.999 236.7 3.2 241 12.9
2009-12-11 08:05:53 51°13.055 2°50.993 237.1 3.3 232 13
2009-12-11 08:05:58 51°13.053 2°50.987 236.7 3.2 242 12.7
2009-12-11 08:06:03 51°13.05 2°50.981 237.1 3.2 230 13
2009-12-11 08:06:08 51°13.048 2°50.976 237 3.1 243 12.8
2009-12-11 08:06:13 51°13.045 2°50.97 236.4 3.2 220 13.4
2009-12-11 08:06:18 51°13.043 2°50.964 236.6 3.3 238 12.4
2009-12-11 08:06:23 51°13.039 2°50.96 234.9 3.1 233 12.3
2009-12-11 08:06:28 51°13.037 2°50.954 236.6 3.1 226 13.4
2009-12-11 08:06:33 51°13.035 2°50.948 235.2 3.1 233 12.7
2009-12-11 08:06:38 51°13.032 2°50.943 233.8 3.1 233 12.8
2009-12-11 08:06:43 51°13.029 2°50.937 235.9 3.2 231 13
2009-12-11 08:06:49 51°13.027 2°50.93 236 3.2 245 12.7
2009-12-11 08:06:53 51°13.024 2°50.926 236.9 3.3 223 13.3
2009-12-11 08:06:58 51°13.022 2°50.919 236 3.2 244 12.8
2009-12-11 08:07:03 51°13.019 2°50.915 236 3.3 225 13.3
2009-12-11 08:07:09 51°13.016 2°50.907 236 3.3 241 12.3
2009-12-11 08:07:13 51°13.013 2°50.903 235.4 3.3 232 12.5
2009-12-11 08:07:18 51°13.011 2°50.897 236.1 3.3 234 13.1
2009-12-11 08:07:23 51°13.008 2°50.891 235.5 3.4 239 12.6
2009-12-11 08:07:29 51°13.005 2°50.884 235.6 3.4 234 12.9
2009-12-11 08:07:33 51°13.003 2°50.879 236.7 3.4 234 13.3
2009-12-11 08:07:38 51°13 2°50.872 236.8 3.5 237 12.8
2009-12-11 08:07:43 51°12.998 2°50.866 235.9 3.5 240 12.5
2009-12-11 08:07:48 51°12.994 2°50.861 236.6 3.4 233 13.1
2009-12-11 08:07:53 51°12.992 2°50.854 236.9 3.5 232 13.6
2009-12-11 08:07:58 51°12.989 2°50.847 236 3.4 233 13.1
2009-12-11 08:08:04 51°12.986 2°50.84 235.5 3.5 232 13
2009-12-11 08:08:08 51°12.984 2°50.834 235.2 3.6 238 12.5
2009-12-11 08:08:13 51°12.981 2°50.828 234.9 3.5 239 12.9
2009-12-11 08:08:18 51°12.978 2°50.822 237.2 3.5 237 12.7
2009-12-11 08:08:24 51°12.975 2°50.814 236.4 3.4 238 12.9
2009-12-11 08:08:28 51°12.973 2°50.809 237.1 3.5 227 13.4
2009-12-11 08:08:33 51°12.971 2°50.802 238.1 3.4 246 12.4
2009-12-11 08:08:38 51°12.967 2°50.796 238.5 3.4 237 12.8
2009-12-11 08:08:44 51°12.965 2°50.788 241.3 3.4 237 12.4
2009-12-11 08:08:49 51°12.963 2°50.782 239.6 3.3 249 12.5
2009-12-11 08:08:53 51°12.96 2°50.777 241.5 3.4 232 13.7
2009-12-11 08:08:58 51°12.959 2°50.77 243 3.4 240 13.1
2009-12-11 08:09:04 51°12.957 2°50.761 242.5 3.5 253 12.2
2009-12-11 08:09:09 51°12.954 2°50.755 244.6 3.5 242 12.9
2009-12-11 08:09:13 51°12.953 2°50.749 246.1 3.4 249 13.1
2009-12-11 08:09:18 51°12.951 2°50.743 247.3 3.4 255 12.7
2009-12-11 08:09:24 51°12.95 2°50.734 249.8 3.4 251 12.9
2009-12-11 08:09:29 51°12.948 2°50.727 250.5 3.4 251 13.1
2009-12-11 08:09:34 51°12.947 2°50.72 251.7 3.3 255 13.2
2009-12-11 08:09:38 51°12.946 2°50.713 253 3.5 259 13
2009-12-11 08:09:43 51°12.945 2°50.706 253.3 3.5 257 12.9
2009-12-11 08:09:48 51°12.945 2°50.698 254.2 3.6 257 12.9
2009-12-11 08:09:54 51°12.944 2°50.689 255.3 3.6 269 12.3
2009-12-11 08:09:58 51°12.943 2°50.683 256.6 3.5 258 12.7
2009-12-11 08:10:03 51°12.943 2°50.675 256.8 3.6 268 12.4
2009-12-11 08:10:08 51°12.941 2°50.667 256.5 3.6 259 12.9
2009-12-11 08:10:14 51°12.941 2°50.658 257 3.5 259 13.1
2009-12-11 08:10:18 51°12.941 2°50.652 256.7 3.6 270 12.5
2009-12-11 08:10:23 51°12.94 2°50.644 257.3 3.5 260 12.6
2009-12-11 08:10:28 51°12.939 2°50.636 257.2 3.6 267 12.6
2009-12-11 08:10:33 51°12.939 2°50.628 257.4 3.7 266 12.8
2009-12-11 08:10:38 51°12.938 2°50.62 257.8 3.6 266 12.9
2009-12-11 08:10:43 51°12.938 2°50.612 257.9 3.6 259 13.3
2009-12-11 08:10:48 51°12.938 2°50.604 258.4 3.7 271 12.5
2009-12-11 08:10:53 51°12.936 2°50.597 258.4 3.5 266 12.7
2009-12-11 08:10:58 51°12.936 2°50.589 258.4 3.5 254 13.6
2009-12-11 08:11:03 51°12.936 2°50.581 258.5 3.6 265 12.8
2009-12-11 08:11:09 51°12.935 2°50.572 257.7 3.6 266 12.7
2009-12-11 08:11:13 51°12.934 2°50.565 257.4 3.6 257 13.4
2009-12-11 08:11:18 51°12.934 2°50.558 257.6 3.7 270 13.3
2009-12-11 08:11:23 51°12.932 2°50.55 258.5 3.5 259 13.1
2009-12-11 08:11:29 51°12.932 2°50.54 257 3.6 263 13.1
2009-12-11 08:11:33 51°12.931 2°50.534 256.1 3.6 264 13.1
2009-12-11 08:11:38 51°12.931 2°50.526 255.8 3.5 258 13.7
2009-12-11 08:11:43 51°12.93 2°50.519 255 3.6 257 13.7
2009-12-11 08:11:49 51°12.929 2°50.509 254.1 3.6 260 13.2
2009-12-11 08:11:53 51°12.928 2°50.503 253.4 3.6 259 13.4
2009-12-11 08:11:58 51°12.927 2°50.495 253.6 3.6 257 13.5
2009-12-11 08:12:03 51°12.926 2°50.487 252 3.7 262 13
2009-12-11 08:12:08 51°12.924 2°50.48 250.9 3.6 251 13.8
2009-12-11 08:12:13 51°12.923 2°50.472 251.1 3.6 249 13.9
2009-12-11 08:12:18 51°12.921 2°50.464 250.1 3.6 254 13.3
2009-12-11 08:12:23 51°12.919 2°50.457 249.8 3.5 245 13.8
2009-12-11 08:12:28 51°12.919 2°50.449 250 3.6 254 13.1
2009-12-11 08:12:33 51°12.917 2°50.442 249.4 3.7 259 12.7
2009-12-11 08:12:38 51°12.915 2°50.434 250.1 3.5 247 13.8
2009-12-11 08:12:43 51°12.915 2°50.426 250.5 3.6 249 13.7
2009-12-11 08:12:48 51°12.913 2°50.418 249.2 3.7 260 12.7
2009-12-11 08:12:53 51°12.911 2°50.412 249.8 3.6 250 13.4
2009-12-11 08:12:58 51°12.91 2°50.403 249.8 3.6 248 13.8
2009-12-11 08:13:03 51°12.909 2°50.396 249 3.6 255 13.4
2009-12-11 08:13:08 51°12.907 2°50.388 249.1 3.7 252 13.3
2009-12-11 08:13:13 51°12.905 2°50.38 249.4 3.7 255 12.9
2009-12-11 08:13:18 51°12.904 2°50.373 249.2 3.6 252 13.2
2009-12-11 08:13:23 51°12.902 2°50.365 249.4 3.7 251 13.4
2009-12-11 08:13:29 51°12.901 2°50.355 249.8 3.8 260 12.9
2009-12-11 08:13:33 51°12.899 2°50.349 249.8 3.7 248 13.3
2009-12-11 08:13:38 51°12.898 2°50.341 249.7 3.7 259 13.3
2009-12-11 08:13:43 51°12.896 2°50.334 250.3 3.7 250 13.3
2009-12-11 08:13:49 51°12.895 2°50.324 249.8 3.6 252 13.5
2009-12-11 08:13:53 51°12.894 2°50.318 249.1 3.7 250 13.4
2009-12-11 08:13:58 51°12.892 2°50.31 248.8 3.7 256 13.1
2009-12-11 08:14:03 51°12.89 2°50.303 248.3 3.8 251 13.4
2009-12-11 08:14:09 51°12.889 2°50.293 249.5 3.7 256 13.2
2009-12-11 08:14:13 51°12.887 2°50.287 249.3 3.7 250 13.6
2009-12-11 08:14:18 51°12.886 2°50.279 249.7 3.8 259 13.2
2009-12-11 08:14:24 51°12.884 2°50.27 248.4 3.9 256 12.8
2009-12-11 08:14:28 51°12.882 2°50.264 249.3 3.7 247 13.8
2009-12-11 08:14:33 51°12.881 2°50.255 249.5 3.7 258 12.9
2009-12-11 08:14:38 51°12.879 2°50.248 248.2 3.7 250 13.2
2009-12-11 08:14:44 51°12.877 2°50.238 249.3 3.6 256 13.3
2009-12-11 08:14:48 51°12.876 2°50.233 249.9 3.6 248 14
2009-12-11 08:14:53 51°12.875 2°50.225 250.3 3.5 251 13.7
2009-12-11 08:14:58 51°12.873 2°50.217 249.9 3.7 259 13.2
2009-12-11 08:15:04 51°12.871 2°50.208 250 3.6 250 13.7
2009-12-11 08:15:09 51°12.87 2°50.201 250 3.6 253 13.7
2009-12-11 08:15:13 51°12.869 2°50.195 249.9 3.6 255 13.4
2009-12-11 08:15:18 51°12.868 2°50.187 250.2 3.6 247 13.9
2009-12-11 08:15:24 51°12.866 2°50.178 250.5 3.6 256 13.4
2009-12-11 08:15:28 51°12.865 2°50.172 251.1 3.7 259 13.3
2009-12-11 08:15:33 51°12.864 2°50.164 251.3 3.5 247 14
2009-12-11 08:15:38 51°12.862 2°50.156 250.2 3.6 254 13.7
2009-12-11 08:15:44 51°12.86 2°50.147 250 3.7 249 13.4
2009-12-11 08:15:49 51°12.859 2°50.139 249.8 3.8 257 13.5
2009-12-11 08:15:53 51°12.858 2°50.133 249.8 3.7 251 13.7
2009-12-11 08:15:58 51°12.857 2°50.125 250.1 3.7 258 13.5
2009-12-11 08:16:03 51°12.855 2°50.118 250.8 3.6 250 13.4
2009-12-11 08:16:08 51°12.854 2°50.11 250.5 3.8 264 13.1
2009-12-11 08:16:14 51°12.851 2°50.101 250.7 3.7 249 13.9
2009-12-11 08:16:18 51°12.851 2°50.094 250.9 3.6 255 13.8
2009-12-11 08:16:23 51°12.849 2°50.087 249.5 3.7 254 13.4
2009-12-11 08:16:29 51°12.847 2°50.078 248.2 3.7 248 13.4
2009-12-11 08:16:34 51°12.846 2°50.07 245.4 3.7 248 13.4
2009-12-11 08:16:38 51°12.844 2°50.065 245.1 3.6 249 13.4
2009-12-11 08:16:43 51°12.841 2°50.058 243.3 3.6 245 13.7
2009-12-11 08:16:48 51°12.84 2°50.051 243.1 3.5 238 13.7
2009-12-11 08:16:54 51°12.837 2°50.042 240.3 3.7 245 13.7
2009-12-11 08:16:58 51°12.834 2°50.037 239.5 3.6 240 13.6
2009-12-11 08:17:03 51°12.832 2°50.03 238.9 3.7 235 13.9
2009-12-11 08:17:09 51°12.83 2°50.021 237.9 3.6 246 13
2009-12-11 08:17:13 51°12.827 2°50.016 237.1 3.6 241 13.6
2009-12-11 08:17:18 51°12.825 2°50.009 238.4 3.5 233 14.2
2009-12-11 08:17:23 51°12.822 2°50.002 237 3.6 241 13.8
2009-12-11 08:17:29 51°12.819 2°49.994 237.1 3.7 237 13.8
2009-12-11 08:17:33 51°12.816 2°49.988 237.8 3.7 240 13.7
2009-12-11 08:17:38 51°12.814 2°49.982 237 3.7 239 13.5
2009-12-11 08:17:43 51°12.811 2°49.975 236.7 3.7 235 13.5
2009-12-11 08:17:49 51°12.808 2°49.966 236 3.7 240 13.4
2009-12-11 08:17:53 51°12.806 2°49.961 235.5 3.7 233 13.8
2009-12-11 08:17:58 51°12.804 2°49.954 236 3.6 240 13.6
2009-12-11 08:18:04 51°12.8 2°49.946 235.1 3.7 243 13.2
2009-12-11 08:18:09 51°12.797 2°49.94 236 3.7 232 13.8
2009-12-11 08:18:13 51°12.794 2°49.935 235.9 3.6 235 13.9
2009-12-11 08:18:18 51°12.792 2°49.928 235.6 3.6 230 13.9
2009-12-11 08:18:23 51°12.789 2°49.921 234.5 3.6 241 13.6
2009-12-11 08:18:29 51°12.785 2°49.914 236.5 3.6 235 13.6
2009-12-11 08:18:33 51°12.783 2°49.908 237.5 3.6 242 13.6
2009-12-11 08:18:38 51°12.781 2°49.901 237.3 3.7 235 13.8
2009-12-11 08:18:43 51°12.779 2°49.894 238.6 3.7 245 13.4
2009-12-11 08:18:48 51°12.776 2°49.887 239.4 3.6 241 13.6
2009-12-11 08:18:54 51°12.773 2°49.879 240.5 3.5 241 13.6
2009-12-11 08:18:58 51°12.771 2°49.873 239.7 3.6 239 13.6
2009-12-11 08:19:03 51°12.769 2°49.866 240.4 3.6 241 13.5
2009-12-11 08:19:08 51°12.766 2°49.86 240.6 3.6 244 13.3
2009-12-11 08:19:14 51°12.763 2°49.852 241.1 3.5 242 13.5
2009-12-11 08:19:18 51°12.762 2°49.847 241.1 3.5 244 13.9
2009-12-11 08:19:23 51°12.759 2°49.84 241.5 3.5 237 14.4
2009-12-11 08:19:29 51°12.757 2°49.831 242 3.6 244 13.7
2009-12-11 08:19:33 51°12.755 2°49.826 241.8 3.6 251 13.4
2009-12-11 08:19:38 51°12.753 2°49.818 242.4 3.6 230 14.4
2009-12-11 08:19:43 51°12.752 2°49.81 241.7 3.7 254 13.2
2009-12-11 08:19:49 51°12.748 2°49.803 241.8 3.6 238 13.9
2009-12-11 08:19:53 51°12.747 2°49.797 242.4 3.6 245 13.8
2009-12-11 08:19:58 51°12.744 2°49.79 241.9 3.7 249 13.1
2009-12-11 08:20:03 51°12.742 2°49.782 242.5 3.6 244 13.6
2009-12-11 08:20:09 51°12.74 2°49.774 242.3 3.6 243 13.8
2009-12-11 08:20:13 51°12.738 2°49.768 241.9 3.6 245 13.6
2009-12-11 08:20:18 51°12.736 2°49.761 242.2 3.6 242 13.9
2009-12-11 08:20:23 51°12.734 2°49.753 242.9 3.6 239 14
2009-12-11 08:20:29 51°12.731 2°49.745 241.8 3.7 247 13.8
2009-12-11 08:20:33 51°12.73 2°49.739 242.8 3.6 244 13
2009-12-11 08:20:38 51°12.726 2°49.733 241.8 3.6 240 13.6
2009-12-11 08:20:43 51°12.725 2°49.725 243.1 3.6 236 14.2
2009-12-11 08:20:49 51°12.722 2°49.716 241.6 3.6 250 13.8
2009-12-11 08:20:53 51°12.72 2°49.711 241.8 3.6 240 13.8
2009-12-11 08:20:58 51°12.718 2°49.703 242 3.6 250 13.5
2009-12-11 08:21:03 51°12.716 2°49.696 242 3.6 241 14
2009-12-11 08:21:08 51°12.714 2°49.689 243.1 3.6 244 13.5
2009-12-11 08:21:13 51°12.711 2°49.682 241.6 3.6 248 13.3
2009-12-11 08:21:18 51°12.709 2°49.675 242.8 3.6 239 13.6
2009-12-11 08:21:23 51°12.707 2°49.667 242.2 3.6 244 14
2009-12-11 08:21:28 51°12.705 2°49.66 242.4 3.6 247 13.4
2009-12-11 08:21:33 51°12.702 2°49.653 242.4 3.7 249 13.3
2009-12-11 08:21:38 51°12.7 2°49.646 242.7 3.6 238 14.2
2009-12-11 08:21:43 51°12.699 2°49.638 242.4 3.6 243 13.9
2009-12-11 08:21:48 51°12.696 2°49.631 241.5 3.6 248 13.8
2009-12-11 08:21:53 51°12.693 2°49.624 242.4 3.6 237 14
2009-12-11 08:21:58 51°12.692 2°49.617 241.5 3.7 250 13.7
2009-12-11 08:22:03 51°12.689 2°49.61 241.9 3.7 244 13.3
2009-12-11 08:22:08 51°12.687 2°49.603 241.8 3.6 243 14.1
2009-12-11 08:22:13 51°12.685 2°49.596 242.5 3.6 234 14.2
2009-12-11 08:22:18 51°12.682 2°49.588 241.2 3.7 248 13.5
2009-12-11 08:22:23 51°12.68 2°49.581 241.2 3.7 245 13.4
2009-12-11 08:22:29 51°12.677 2°49.573 242.4 3.7 246 13.6
2009-12-11 08:22:33 51°12.675 2°49.567 242.7 3.6 241 14
2009-12-11 08:22:38 51°12.673 2°49.56 242.6 3.6 248 13.9
2009-12-11 08:22:43 51°12.671 2°49.553 242.5 3.6 242 14
2009-12-11 08:22:49 51°12.669 2°49.544 242.9 3.6 247 13.8
2009-12-11 08:22:53 51°12.667 2°49.538 243.1 3.6 242 13.8
2009-12-11 08:22:58 51°12.665 2°49.531 242.3 3.7 247 13.8
2009-12-11 08:23:03 51°12.663 2°49.524 241.8 3.6 242 14.2
2009-12-11 08:23:09 51°12.66 2°49.515 241.5 3.7 241 13.6
2009-12-11 08:23:13 51°12.657 2°49.51 240.1 3.7 246 13.3
2009-12-11 08:23:18 51°12.655 2°49.503 239.3 3.7 231 14.3
2009-12-11 08:23:24 51°12.652 2°49.494 238.8 3.7 244 13.9
2009-12-11 08:23:28 51°12.65 2°49.489 238.8 3.7 239 13.6
2009-12-11 08:23:33 51°12.647 2°49.482 238.2 3.6 241 13.7
2009-12-11 08:23:38 51°12.644 2°49.475 238.9 3.7 229 14.4
2009-12-11 08:23:44 51°12.642 2°49.467 237.6 3.6 246 13.8
2009-12-11 08:23:48 51°12.639 2°49.462 238.2 3.7 226 14.2
2009-12-11 08:23:53 51°12.637 2°49.454 237.4 3.7 250 13
2009-12-11 08:23:58 51°12.633 2°49.449 237.1 3.7 227 13.9
2009-12-11 08:24:04 51°12.63 2°49.441 237.6 3.5 237 14.2
2009-12-11 08:24:09 51°12.626 2°49.435 237 3.6 225 14.7
2009-12-11 08:24:13 51°12.625 2°49.429 237 3.6 236 13.8
2009-12-11 08:24:18 51°12.621 2°49.424 236.3 3.5 235 13.8
2009-12-11 08:24:24 51°12.618 2°49.416 237.9 3.6 230 14.1
2009-12-11 08:24:28 51°12.615 2°49.411 236.9 3.6 241 13.5
2009-12-11 08:24:33 51°12.612 2°49.405 237.4 3.6 225 14.4
2009-12-11 08:24:38 51°12.61 2°49.397 237.7 3.5 241 13.9
2009-12-11 08:24:44 51°12.606 2°49.39 238.3 3.6 232 14
2009-12-11 08:24:49 51°12.604 2°49.383 237.6 3.7 240 13.3
2009-12-11 08:24:53 51°12.601 2°49.378 238.4 3.7 240 13.8
2009-12-11 08:24:58 51°12.599 2°49.371 240.1 3.6 228 14.1
2009-12-11 08:25:03 51°12.596 2°49.364 238.2 3.6 245 13.6
2009-12-11 08:25:08 51°12.594 2°49.358 239.3 3.6 230 13.9
2009-12-11 08:25:14 51°12.591 2°49.35 238.5 3.6 242 13.8
2009-12-11 08:25:18 51°12.588 2°49.344 238.4 3.6 234 14
2009-12-11 08:25:23 51°12.585 2°49.337 238.6 3.7 237 14
2009-12-11 08:25:28 51°12.583 2°49.331 237.7 3.7 237 13.6
2009-12-11 08:25:34 51°12.579 2°49.323 238.5 3.7 236 13.6
2009-12-11 08:25:38 51°12.577 2°49.317 238.5 3.7 237 13.3
2009-12-11 08:25:43 51°12.573 2°49.311 237.5 3.7 237 13.4
2009-12-11 08:25:48 51°12.571 2°49.305 238 3.6 231 13.8
2009-12-11 08:25:54 51°12.568 2°49.296 237.5 3.6 243 13.6
2009-12-11 08:25:58 51°12.565 2°49.292 238 3.7 225 14.4
2009-12-11 08:26:03 51°12.563 2°49.284 238.1 3.8 244 13.7
2009-12-11 08:26:09 51°12.559 2°49.277 238.3 3.6 233 13.9
2009-12-11 08:26:13 51°12.557 2°49.272 238.9 3.5 234 14.4
2009-12-11 08:26:18 51°12.554 2°49.265 238.9 3.6 236 13.7
2009-12-11 08:26:23 51°12.551 2°49.258 237.5 3.6 235 13.7
2009-12-11 08:26:29 51°12.548 2°49.25 238 3.6 239 13.8
2009-12-11 08:26:33 51°12.545 2°49.245 238.9 3.6 235 13.8
2009-12-11 08:26:38 51°12.543 2°49.238 238.7 3.7 241 13
2009-12-11 08:26:43 51°12.539 2°49.232 238.1 3.6 235 13.7
2009-12-11 08:26:49 51°12.536 2°49.224 239.8 3.6 227 13.9
2009-12-11 08:26:53 51°12.534 2°49.218 237.7 3.7 245 13.3
2009-12-11 08:26:58 51°12.531 2°49.212 238.1 3.5 229 14
2009-12-11 08:27:04 51°12.528 2°49.204 238.5 3.5 237 13.5
2009-12-11 08:27:09 51°12.525 2°49.198 237.4 3.6 233 13.6
2009-12-11 08:27:13 51°12.523 2°49.193 237.5 3.6 236 14.1
2009-12-11 08:27:18 51°12.52 2°49.186 238.9 3.5 233 13.9
2009-12-11 08:27:23 51°12.517 2°49.179 238 3.6 238 13.6
2009-12-11 08:27:29 51°12.514 2°49.172 238.7 3.6 235 13.9
2009-12-11 08:27:33 51°12.512 2°49.166 239 3.7 235 13.9
2009-12-11 08:27:38 51°12.509 2°49.159 238.8 3.6 238 13.5
2009-12-11 08:27:43 51°12.506 2°49.153 239 3.6 238 13.5
2009-12-11 08:27:48 51°12.504 2°49.146 239.1 3.6 238 13.4
2009-12-11 08:27:54 51°12.501 2°49.137 238.4 3.6 239 13.3
2009-12-11 08:27:58 51°12.498 2°49.132 239.4 3.7 238 13.4
2009-12-11 08:28:03 51°12.496 2°49.125 238.5 3.7 241 13.6
2009-12-11 08:28:08 51°12.492 2°49.119 238.8 3.6 232 13.9
2009-12-11 08:28:13 51°12.49 2°49.111 239 3.7 238 13.6
2009-12-11 08:28:18 51°12.487 2°49.105 236.7 3.7 238 13.2
2009-12-11 08:28:23 51°12.484 2°49.099 237.6 3.7 233 14
2009-12-11 08:28:29 51°12.481 2°49.09 238.3 3.6 237 13.7
2009-12-11 08:28:33 51°12.478 2°49.085 237.1 3.7 230 14.3
2009-12-11 08:28:38 51°12.476 2°49.078 237.9 3.6 240 13.4
2009-12-11 08:28:43 51°12.471 2°49.072 237.4 3.8 235 13.5
2009-12-11 08:28:49 51°12.469 2°49.063 238.2 3.6 236 13.5
2009-12-11 08:28:53 51°12.466 2°49.058 237.4 3.7 238 13.6
2009-12-11 08:28:58 51°12.464 2°49.051 238.7 3.7 236 13.6
2009-12-11 08:29:03 51°12.461 2°49.044 237.1 3.7 236 13.9
2009-12-11 08:29:09 51°12.458 2°49.036 238.2 3.7 237 13.4
2009-12-11 08:29:13 51°12.455 2°49.032 237.7 3.7 239 13.6
2009-12-11 08:29:18 51°12.452 2°49.024 238.6 3.7 232 13.9
2009-12-11 08:29:23 51°12.45 2°49.017 237.8 3.7 243 13.5
2009-12-11 08:29:29 51°12.446 2°49.01 238.2 3.6 235 13.4
2009-12-11 08:29:33 51°12.444 2°49.005 237.7 3.6 236 13.8
2009-12-11 08:29:38 51°12.441 2°48.998 238.1 3.7 236 13.6
2009-12-11 08:29:43 51°12.438 2°48.992 238.1 3.7 237 13.6
2009-12-11 08:29:49 51°12.434 2°48.983 238.4 3.7 236 13.7
2009-12-11 08:29:53 51°12.432 2°48.978 238.5 3.7 237 13.7
2009-12-11 08:29:58 51°12.429 2°48.971 238.1 3.8 237 13.2
2009-12-11 08:30:03 51°12.426 2°48.964 237.8 3.8 236 13.2
2009-12-11 08:30:08 51°12.423 2°48.958 237.1 3.7 236 13.6
2009-12-11 08:30:13 51°12.42 2°48.952 238.2 3.7 228 14.1
2009-12-11 08:30:18 51°12.417 2°48.945 238 3.6 241 13.1
2009-12-11 08:30:23 51°12.414 2°48.939 236.5 3.6 232 13.6
2009-12-11 08:30:28 51°12.412 2°48.932 237.6 3.5 238 12.9
2009-12-11 08:30:33 51°12.408 2°48.926 237.4 3.7 234 13.4
2009-12-11 08:30:38 51°12.406 2°48.919 238.6 3.5 239 13.4
2009-12-11 08:30:43 51°12.403 2°48.912 238.1 3.7 235 13.5
2009-12-11 08:30:48 51°12.4 2°48.906 238.7 3.6 239 13.2
2009-12-11 08:30:53 51°12.397 2°48.899 239 3.6 229 13.8
2009-12-11 08:30:58 51°12.395 2°48.892 239 3.6 242 13.5
2009-12-11 08:31:03 51°12.391 2°48.886 237.6 3.6 231 13.5
2009-12-11 08:31:08 51°12.389 2°48.879 237.8 3.6 238 13.1
2009-12-11 08:31:13 51°12.385 2°48.873 237.6 3.7 237 13.2
2009-12-11 08:31:18 51°12.383 2°48.866 238.2 3.7 238 13.5
2009-12-11 08:31:23 51°12.38 2°48.86 239.4 3.6 242 13.5
2009-12-11 08:31:29 51°12.377 2°48.852 240.6 3.5 238 13.3
2009-12-11 08:31:33 51°12.375 2°48.846 238.9 3.6 239 13.6
2009-12-11 08:31:38 51°12.372 2°48.84 238.4 3.6 235 14
2009-12-11 08:31:43 51°12.37 2°48.833 239.5 3.5 241 13.3
2009-12-11 08:31:49 51°12.367 2°48.825 238.3 3.6 240 13.2
2009-12-11 08:31:53 51°12.364 2°48.82 238.6 3.6 232 13.5
2009-12-11 08:31:58 51°12.362 2°48.813 238.2 3.6 243 13.2
2009-12-11 08:32:04 51°12.358 2°48.806 237.9 3.6 235 13.5
2009-12-11 08:32:09 51°12.356 2°48.799 238.1 3.6 235 13.7
2009-12-11 08:32:13 51°12.354 2°48.793 239.1 3.7 247 13
2009-12-11 08:32:18 51°12.352 2°48.786 240.4 3.7 240 13.1
2009-12-11 08:32:24 51°12.349 2°48.777 240.8 3.7 242 13.4
2009-12-11 08:32:28 51°12.347 2°48.772 242.5 3.6 238 13.8
2009-12-11 08:32:33 51°12.345 2°48.765 242.9 3.6 242 13.6
2009-12-11 08:32:38 51°12.342 2°48.758 241.9 3.6 247 13.4
2009-12-11 08:32:44 51°12.339 2°48.75 243.2 3.6 241 13.8
2009-12-11 08:32:48 51°12.338 2°48.743 244.3 3.7 243 13.8
2009-12-11 08:32:53 51°12.336 2°48.736 244.7 3.6 251 13.2
2009-12-11 08:32:58 51°12.334 2°48.729 244.4 3.6 241 13.9
2009-12-11 08:33:04 51°12.332 2°48.72 244.7 3.6 246 13.7
2009-12-11 08:33:08 51°12.33 2°48.714 245.3 3.6 249 13.1
2009-12-11 08:33:13 51°12.328 2°48.707 245 3.6 245 13.3
2009-12-11 08:33:18 51°12.326 2°48.7 245 3.6 247 13.7
2009-12-11 08:33:24 51°12.324 2°48.691 245.5 3.6 247 13.7
2009-12-11 08:33:28 51°12.322 2°48.685 245.1 3.6 244 13.8
2009-12-11 08:33:33 51°12.32 2°48.677 245 3.6 249 13.4
2009-12-11 08:33:38 51°12.318 2°48.67 245.9 3.7 248 13.4
2009-12-11 08:33:44 51°12.315 2°48.661 245.6 3.6 247 13.7
2009-12-11 08:33:49 51°12.314 2°48.654 245.5 3.6 248 13.7
2009-12-11 08:33:53 51°12.312 2°48.648 245.7 3.6 244 14.3
2009-12-11 08:33:58 51°12.31 2°48.64 245.3 3.7 241 14.2
2009-12-11 08:34:02 51°12.308 2°48.635 244.6 3.7 249 13.4
2009-12-11 08:34:09 51°12.305 2°48.624 243.9 3.7 244 13.6
2009-12-11 08:34:13 51°12.304 2°48.618 244.5 3.8 249 13.1
2009-12-11 08:34:18 51°12.301 2°48.611 244.3 3.8 246 13.6
2009-12-11 08:34:24 51°12.298 2°48.603 244.7 3.7 240 14.1
2009-12-11 08:34:28 51°12.297 2°48.597 244.4 3.7 247 13.7
2009-12-11 08:34:34 51°12.294 2°48.588 243.7 3.7 243 14
2009-12-11 08:34:38 51°12.292 2°48.582 244.4 3.7 249 13.4
2009-12-11 08:34:43 51°12.289 2°48.575 244 3.7 239 14
2009-12-11 08:34:48 51°12.288 2°48.567 244.1 3.6 246 13.4
2009-12-11 08:34:53 51°12.285 2°48.56 243.6 3.7 244 13.5
2009-12-11 08:34:58 51°12.284 2°48.552 244.2 3.7 239 13.7
2009-12-11 08:35:03 51°12.281 2°48.546 244 3.7 255 13.1
2009-12-11 08:35:08 51°12.279 2°48.538 245.3 3.7 244 13.5
2009-12-11 08:35:13 51°12.277 2°48.531 244.7 3.6 252 13.6
2009-12-11 08:35:18 51°12.275 2°48.523 245.3 3.7 240 14
2009-12-11 08:35:24 51°12.273 2°48.514 245.2 3.7 248 13.7
2009-12-11 08:35:28 51°12.271 2°48.508 245.4 3.7 248 13.8
2009-12-11 08:35:33 51°12.269 2°48.501 246.2 3.6 245 13.8
2009-12-11 08:35:38 51°12.267 2°48.494 244.5 3.8 247 14
2009-12-11 08:35:44 51°12.264 2°48.485 245.3 3.7 246 14.1
2009-12-11 08:35:48 51°12.263 2°48.479 245.8 3.6 240 14
2009-12-11 08:35:53 51°12.261 2°48.471 244.1 3.7 248 13.5
2009-12-11 08:35:58 51°12.258 2°48.464 244 3.7 247 13.7
2009-12-11 08:36:04 51°12.256 2°48.455 245.5 3.6 246 14
2009-12-11 08:36:08 51°12.255 2°48.449 245.1 3.6 242 13.8
2009-12-11 08:36:13 51°12.253 2°48.442 244.3 3.7 252 13.8
2009-12-11 08:36:18 51°12.251 2°48.435 244.7 3.6 244 14.1
2009-12-11 08:36:23 51°12.249 2°48.427 244.4 3.6 249 14
2009-12-11 08:36:28 51°12.247 2°48.42 245.3 3.6 246 13.7
2009-12-11 08:36:34 51°12.245 2°48.41 245.9 3.6 256 13.6
2009-12-11 08:36:38 51°12.244 2°48.405 248.1 3.6 249 14.2
2009-12-11 08:36:43 51°12.243 2°48.396 250.1 3.6 261 13.4
2009-12-11 08:36:48 51°12.242 2°48.389 252.2 3.6 263 13
2009-12-11 08:36:54 51°12.241 2°48.379 256.1 3.6 266 13.8
2009-12-11 08:36:58 51°12.241 2°48.373 260.7 3.6 267 14.3
2009-12-11 08:37:03 51°12.242 2°48.365 264.5 3.5 274 14
2009-12-11 08:37:08 51°12.242 2°48.358 267 3.5 273 14.3
2009-12-11 08:37:13 51°12.242 2°48.35 267.9 3.4 274 14.4
2009-12-11 08:37:18 51°12.243 2°48.342 269 3.4 276 14
2009-12-11 08:37:23 51°12.243 2°48.335 268.9 3.4 281 13.5
2009-12-11 08:37:28 51°12.244 2°48.327 268.9 3.4 275 14.3
2009-12-11 08:37:33 51°12.245 2°48.32 269.3 3.6 279 14.1
2009-12-11 08:37:38 51°12.246 2°48.312 270.5 3.6 279 14
2009-12-11 08:37:44 51°12.247 2°48.303 272.5 3.6 283 14.3
2009-12-11 08:37:48 51°12.249 2°48.297 274.3 3.6 286 14.2
2009-12-11 08:37:53 51°12.25 2°48.289 276.1 3.6 286 14.2
2009-12-11 08:37:58 51°12.252 2°48.282 277.5 3.6 290 14
2009-12-11 08:38:03 51°12.253 2°48.274 278.7 3.6 289 14.1
2009-12-11 08:38:09 51°12.255 2°48.266 280.1 3.3 289 14.3
2009-12-11 08:38:13 51°12.257 2°48.26 281.2 3.3 297 13.8
2009-12-11 08:38:18 51°12.258 2°48.253 281.7 3.2 287 14
2009-12-11 08:38:23 51°12.26 2°48.247 282.6 3.2 289 14.9
2009-12-11 08:38:29 51°12.262 2°48.239 284.6 3.3 298 14.8
2009-12-11 08:38:33 51°12.264 2°48.234 286.4 3.2 293 14.9
2009-12-11 08:38:38 51°12.266 2°48.228 287.9 3.3 303 14.5
2009-12-11 08:38:43 51°12.268 2°48.221 288.9 3.2 296 14.6
2009-12-11 08:38:49 51°12.271 2°48.214 290.2 3.2 300 15
2009-12-11 08:38:53 51°12.272 2°48.209 291.8 3.1 304 14.7
2009-12-11 08:38:58 51°12.275 2°48.203 292.2 3.1 299 14.5
2009-12-11 08:39:03 51°12.277 2°48.198 292.8 3.1 302 15
2009-12-11 08:39:08 51°12.279 2°48.192 293.3 3.1 305 15.2
2009-12-11 08:39:14 51°12.282 2°48.185 294 3.1 304 15.1
2009-12-11 08:39:18 51°12.284 2°48.181 294.8 3.1 305 15
2009-12-11 08:39:23 51°12.287 2°48.176 295.5 3 303 15.3
2009-12-11 08:39:28 51°12.289 2°48.171 296.6 3 305 15.6
2009-12-11 08:39:34 51°12.293 2°48.165 297.2 3 311 14.9
2009-12-11 08:39:38 51°12.294 2°48.161 297.7 2.9 310 14.9
2009-12-11 08:39:43 51°12.297 2°48.156 298.5 2.9 312 14.9
2009-12-11 08:39:49 51°12.3 2°48.15 300 2.8 315 14.1
2009-12-11 08:39:53 51°12.303 2°48.146 300.6 2.8 314 14.1
2009-12-11 08:39:58 51°12.305 2°48.142 300.2 2.8 310 15
2009-12-11 08:40:03 51°12.308 2°48.138 301.6 2.8 318 14.8
2009-12-11 08:40:09 51°12.312 2°48.132 302.3 2.9 320 14.3
2009-12-11 08:40:13 51°12.313 2°48.128 302.3 2.8 312 14.7
2009-12-11 08:40:18 51°12.316 2°48.124 302.9 2.6 320 15.1
2009-12-11 08:40:23 51°12.318 2°48.12 304.3 2.3 320 14.9
2009-12-11 08:40:29 51°12.321 2°48.117 304.4 2 319 14.6
2009-12-11 08:40:33 51°12.323 2°48.114 304.7 1.9 327 14.3
2009-12-11 08:40:38 51°12.324 2°48.112 304.4 1.8 315 14.6
2009-12-11 08:40:43 51°12.327 2°48.11 304.5 1.7 325 15
2009-12-11 08:40:49 51°12.329 2°48.108 305.8 1.6 328 14.8
2009-12-11 08:40:53 51°12.33 2°48.106 305.7 1.5 321 14.9
2009-12-11 08:40:58 51°12.332 2°48.105 306.4 1.4 336 15.1
2009-12-11 08:41:03 51°12.333 2°48.104 306.9 1.2 329 14.7
2009-12-11 08:41:08 51°12.335 2°48.102 306.9 1.1 331 14.7
2009-12-11 08:41:13 51°12.336 2°48.101 306.9 1 325 15.5
2009-12-11 08:41:18 51°12.337 2°48.1 307.4 1 342 15.2
2009-12-11 08:41:23 51°12.339 2°48.099 307.2 1 338 15
2009-12-11 08:41:28 51°12.339 2°48.099 307.1 0.8 314 15.5
2009-12-11 08:41:33 51°12.34 2°48.098 308 0.7 332 15.6
2009-12-11 08:41:38 51°12.341 2°48.098 308 0.5 345 15
2009-12-11 08:41:43 51°12.342 2°48.098 307.5 0.7 8 14.6
2009-12-11 08:41:48 51°12.343 2°48.098 306.6 0.6 347 14.8
2009-12-11 08:41:53 51°12.344 2°48.099 306.6 0.4 354 15.5
2009-12-11 08:41:58 51°12.344 2°48.099 307.3 0.6 33 15.1
2009-12-11 08:42:03 51°12.345 2°48.099 306.9 0.6 38 14.1
2009-12-11 08:42:08 51°12.345 2°48.099 305.4 0.3 21 14.4
2009-12-11 08:42:13 51°12.346 2°48.1 305.4 0.3 20 15.3
2009-12-11 08:42:18 51°12.346 2°48.101 306.2 0.7 38 14.8
2009-12-11 08:42:23 51°12.346 2°48.101 305.2 0.3 54 15.1
2009-12-11 08:42:28 51°12.347 2°48.102 304.5 0.4 51 15.3
2009-12-11 08:42:33 51°12.347 2°48.102 304.9 0.7 40 14.5
2009-12-11 08:42:38 51°12.347 2°48.103 303.4 0.1 104 15.3
2009-12-11 08:42:43 51°12.348 2°48.105 303.3 0.6 51 15.5
2009-12-11 08:42:49 51°12.348 2°48.105 304.2 0.5 71 14.8
2009-12-11 08:42:53 51°12.348 2°48.106 302.6 0.2 94 14.9
2009-12-11 08:42:58 51°12.348 2°48.106 301.4 0.3 36 14.8
2009-12-11 08:43:03 51°12.349 2°48.106 299.2 0.3 353 14.6
2009-12-11 08:43:09 51°12.349 2°48.105 295.4 0.5 313 14.8
2009-12-11 08:43:13 51°12.35 2°48.104 291.9 0.8 312 14.8
2009-12-11 08:43:18 51°12.35 2°48.101 288.4 1 294 14.7
2009-12-11 08:43:24 51°12.351 2°48.098 283.1 1.2 289 14.8
2009-12-11 08:43:28 51°12.351 2°48.096 278.6 1.5 283 15.1
2009-12-11 08:43:33 51°12.352 2°48.093 274.6 1.7 274 15.1
2009-12-11 08:43:38 51°12.351 2°48.089 269.3 1.9 271 15
2009-12-11 08:43:44 51°12.351 2°48.083 263.8 2.1 253 15.6
2009-12-11 08:43:48 51°12.35 2°48.079 257.4 2.4 249 15
2009-12-11 08:43:53 51°12.349 2°48.073 251.8 2.9 256 15.4
2009-12-11 08:43:58 51°12.347 2°48.066 251.2 3.7 242 15.5
2009-12-11 08:44:04 51°12.345 2°48.056 249.4 4.1 253 15
2009-12-11 08:44:09 51°12.342 2°48.046 249 4.7 243 15.2
2009-12-11 08:44:13 51°12.341 2°48.037 249.8 5.3 258 14.4
2009-12-11 08:44:18 51°12.338 2°48.026 250.1 5.6 246 15.4
2009-12-11 08:44:24 51°12.335 2°48.011 250.5 5.9 253 15
2009-12-11 08:44:28 51°12.333 2°48.001 249.8 6.2 250 15.2
2009-12-11 08:44:33 51°12.33 2°47.987 250.7 6.6 253 14.8
2009-12-11 08:44:38 51°12.327 2°47.973 250.5 6.9 252 15
2009-12-11 08:44:44 51°12.324 2°47.955 251.4 7.2 251 14.7